createdAt,value
2022-10-26T00:00:54.385Z,12.92
2022-10-26T00:03:22.488Z,12.62
2022-10-26T00:05:50.433Z,12.59
2022-10-26T00:08:18.448Z,12.78
2022-10-26T00:10:46.352Z,12.56
2022-10-26T00:13:14.571Z,12.13
2022-10-26T00:15:43.103Z,12.08
2022-10-26T00:18:12.548Z,11.93
2022-10-26T00:20:40.566Z,11.72
2022-10-26T00:23:08.628Z,11.62
2022-10-26T00:25:36.595Z,11.76
2022-10-26T00:28:04.785Z,11.67
2022-10-26T00:30:32.727Z,11.49
2022-10-26T00:33:00.750Z,11.43
2022-10-26T00:35:44.993Z,11.34
2022-10-26T00:38:13.580Z,11.32
2022-10-26T00:40:42.085Z,11.44
2022-10-26T00:43:17.120Z,11.73
2022-10-26T00:45:46.625Z,11.56
2022-10-26T00:48:23.094Z,11.71
2022-10-26T00:50:54.689Z,11.79
2022-10-26T00:53:22.716Z,11.69
2022-10-26T00:55:53.665Z,11.60
2022-10-26T00:58:24.028Z,11.55
2022-10-26T01:00:52.808Z,11.67
2022-10-26T01:03:21.765Z,11.56
2022-10-26T01:05:54.984Z,11.63
2022-10-26T01:08:23.302Z,11.68
2022-10-26T01:10:51.885Z,11.62
2022-10-26T01:13:20.581Z,11.72
2022-10-26T01:15:54.434Z,11.97
2022-10-26T01:18:29.915Z,11.86
2022-10-26T01:21:24.941Z,11.90
2022-10-26T01:24:10.486Z,12.19
2022-10-26T01:27:02.735Z,12.04
2022-10-26T01:29:55.682Z,12.06
2022-10-26T01:32:32.068Z,12.19
2022-10-26T01:35:10.063Z,12.56
2022-10-26T01:37:43.095Z,12.19
2022-10-26T01:40:17.858Z,12.24
2022-10-26T01:42:52.568Z,12.18
2022-10-26T01:45:20.950Z,12.12
2022-10-26T01:47:51.331Z,12.21
2022-10-26T01:50:21.016Z,12.43
2022-10-26T01:52:51.560Z,12.28
2022-10-26T01:55:45.919Z,12.12
2022-10-26T01:58:33.386Z,12.09
2022-10-26T02:01:15.781Z,12.49
2022-10-26T02:03:51.976Z,12.36
2022-10-26T02:06:27.407Z,12.39
2022-10-26T02:09:07.667Z,12.53
2022-10-26T02:11:41.418Z,12.70
2022-10-26T02:14:19.614Z,13.29
2022-10-26T02:16:56.416Z,13.07
2022-10-26T02:19:35.173Z,12.67
2022-10-26T02:22:12.346Z,12.84
2022-10-26T02:24:42.498Z,12.60
2022-10-26T02:27:17.468Z,12.91
2022-10-26T02:29:46.486Z,12.78
2022-10-26T02:32:15.592Z,12.92
2022-10-26T02:34:47.256Z,13.04
2022-10-26T02:37:19.479Z,12.98
2022-10-26T02:39:49.249Z,13.16
2022-10-26T02:42:19.432Z,12.89
2022-10-26T02:44:51.514Z,13.05
2022-10-26T02:47:20.785Z,12.53
2022-10-26T02:49:50.492Z,12.43
2022-10-26T02:52:25.234Z,12.52
2022-10-26T02:54:58.030Z,12.55
2022-10-26T02:57:32.885Z,12.63
2022-10-26T03:00:01.753Z,12.71
2022-10-26T03:02:30.781Z,12.81
2022-10-26T03:05:08.814Z,12.67
2022-10-26T03:07:36.891Z,12.52
2022-10-26T03:10:05.299Z,12.16
2022-10-26T03:12:33.319Z,12.02
2022-10-26T03:15:01.348Z,12.20
2022-10-26T03:17:29.321Z,12.09
2022-10-26T03:19:57.492Z,12.06
2022-10-26T03:22:26.957Z,11.95
2022-10-26T03:24:55.012Z,11.70
2022-10-26T03:27:23.152Z,11.79
2022-10-26T03:29:51.281Z,11.54
2022-10-26T03:32:19.257Z,11.86
2022-10-26T03:34:47.369Z,11.91
2022-10-26T03:37:15.400Z,11.91
2022-10-26T03:39:44.730Z,12.05
2022-10-26T03:42:12.695Z,11.73
2022-10-26T03:44:40.615Z,11.84
2022-10-26T03:47:08.631Z,11.81
2022-10-26T03:49:37.103Z,12.15
2022-10-26T03:52:05.739Z,11.61
2022-10-26T03:54:33.699Z,11.82
2022-10-26T03:57:03.003Z,11.88
2022-10-26T03:59:31.031Z,11.70
2022-10-26T04:01:59.055Z,11.46
2022-10-26T04:04:27.326Z,11.14
2022-10-26T04:06:55.404Z,10.99
2022-10-26T04:09:23.627Z,10.90
2022-10-26T04:11:51.604Z,10.95
2022-10-26T04:14:20.958Z,10.92
2022-10-26T04:16:48.983Z,11.04
2022-10-26T04:19:17.467Z,10.96
2022-10-26T04:21:45.463Z,11.24
2022-10-26T04:24:13.680Z,11.32
2022-10-26T04:26:41.613Z,11.46
2022-10-26T04:29:10.147Z,11.44
2022-10-26T04:31:39.512Z,11.20
2022-10-26T04:34:07.463Z,11.05
2022-10-26T04:36:35.727Z,11.16
2022-10-26T04:39:03.844Z,11.19
2022-10-26T04:41:32.173Z,11.33
2022-10-26T04:44:00.241Z,11.97
2022-10-26T04:46:28.403Z,11.80
2022-10-26T04:48:57.717Z,11.92
2022-10-26T04:51:25.690Z,12.17
2022-10-26T04:53:55.339Z,11.88
2022-10-26T04:56:23.356Z,11.34
2022-10-26T04:58:51.393Z,11.60
2022-10-26T05:01:19.424Z,12.14
2022-10-26T05:03:50.704Z,12.38
2022-10-26T05:06:20.301Z,12.44
2022-10-26T05:08:48.578Z,12.22
2022-10-26T05:11:16.824Z,12.43
2022-10-26T05:13:44.733Z,12.46
2022-10-26T05:16:12.689Z,12.17
2022-10-26T05:18:40.666Z,11.71
2022-10-26T05:21:08.633Z,11.15
2022-10-26T05:23:38.062Z,11.11
2022-10-26T05:26:06.340Z,11.10
2022-10-26T05:28:34.285Z,11.13
2022-10-26T05:31:02.276Z,11.10
2022-10-26T05:33:30.282Z,11.10
2022-10-26T05:35:58.262Z,11.33
2022-10-26T05:41:01.315Z,11.27
2022-10-26T05:43:30.348Z,11.34
2022-10-26T05:45:58.406Z,11.22
2022-10-26T05:48:26.389Z,11.19
2022-10-26T05:50:54.436Z,11.04
2022-10-26T05:53:22.384Z,10.97
2022-10-26T05:55:50.978Z,11.13
2022-10-26T05:58:21.157Z,11.37
2022-10-26T06:01:15.378Z,11.63
2022-10-26T06:03:56.190Z,12.00
2022-10-26T06:06:24.810Z,12.25
2022-10-26T06:08:53.298Z,12.58
2022-10-26T06:11:21.936Z,12.35
2022-10-26T06:13:54.642Z,12.59
2022-10-26T06:16:35.156Z,12.47
2022-10-26T06:19:13.519Z,12.57
2022-10-26T06:21:54.089Z,12.55
2022-10-26T06:24:29.577Z,12.74
2022-10-26T06:27:02.963Z,12.81
2022-10-26T06:29:44.492Z,12.92
2022-10-26T06:32:13.158Z,12.95
2022-10-26T06:34:46.424Z,12.76
2022-10-26T06:37:15.075Z,11.93
2022-10-26T06:39:50.017Z,12.24
2022-10-26T06:42:21.272Z,12.55
2022-10-26T06:44:51.370Z,12.69
2022-10-26T06:47:27.169Z,12.81
2022-10-26T06:50:05.006Z,12.89
2022-10-26T06:52:37.866Z,12.89
2022-10-26T06:55:06.821Z,13.07
2022-10-26T06:57:36.916Z,13.20
2022-10-26T07:00:09.482Z,13.24
2022-10-26T07:02:37.597Z,13.25
2022-10-26T07:05:10.236Z,13.35
2022-10-26T07:07:43.030Z,13.18
2022-10-26T07:10:11.726Z,13.17
2022-10-26T07:12:39.833Z,13.17
2022-10-26T07:17:46.789Z,13.24
2022-10-26T07:20:15.535Z,13.55
2022-10-26T07:22:43.891Z,13.50
2022-10-26T07:25:13.270Z,13.32
2022-10-26T07:27:41.218Z,13.82
2022-10-26T07:30:11.923Z,13.83
2022-10-26T07:32:39.949Z,13.85
2022-10-26T07:35:08.529Z,13.98
2022-10-26T07:37:36.545Z,13.94
2022-10-26T07:40:06.755Z,13.66
2022-10-26T07:42:36.647Z,13.96
2022-10-26T07:45:06.084Z,14.15
2022-10-26T07:47:35.572Z,14.26
2022-10-26T07:50:05.108Z,14.32
2022-10-26T07:52:34.940Z,14.26
2022-10-26T07:55:02.904Z,14.38
2022-10-26T07:57:30.899Z,14.33
2022-10-26T07:59:59.014Z,14.05
2022-10-26T08:02:27.062Z,13.83
2022-10-26T08:04:56.489Z,14.29
2022-10-26T08:07:25.949Z,14.45
2022-10-26T08:09:54.104Z,14.52
2022-10-26T08:12:22.333Z,14.35
2022-10-26T08:14:50.331Z,14.66
2022-10-26T08:17:18.297Z,14.81
2022-10-26T08:19:48.935Z,14.74
2022-10-26T08:22:18.375Z,14.63
2022-10-26T08:24:47.013Z,14.55
2022-10-26T08:27:15.160Z,14.46
2022-10-26T08:29:43.945Z,14.89
2022-10-26T08:32:12.013Z,15.16
2022-10-26T08:34:39.983Z,14.74
2022-10-26T08:37:08.015Z,14.94
2022-10-26T08:39:37.477Z,14.69
2022-10-26T08:42:11.889Z,14.81
2022-10-26T08:44:45.309Z,14.87
2022-10-26T08:50:00.416Z,15.00
2022-10-26T08:52:35.797Z,15.01
2022-10-26T08:55:12.059Z,15.60
2022-10-26T08:57:42.458Z,15.67
2022-10-26T09:00:15.517Z,15.53
2022-10-26T09:02:43.597Z,15.96
2022-10-26T09:05:17.192Z,15.98
2022-10-26T09:07:55.967Z,16.22
2022-10-26T09:10:41.211Z,16.17
2022-10-26T09:13:23.928Z,16.16
2022-10-26T09:16:01.208Z,16.41
2022-10-26T09:18:38.739Z,16.42
2022-10-26T09:21:14.965Z,16.48
2022-10-26T09:24:00.436Z,16.25
2022-10-26T09:26:40.215Z,16.31
2022-10-26T09:29:14.067Z,16.29
2022-10-26T09:31:43.872Z,16.25
2022-10-26T09:34:20.532Z,16.59
2022-10-26T09:36:48.649Z,16.33
2022-10-26T09:39:25.360Z,16.37
2022-10-26T09:41:59.379Z,16.15
2022-10-26T09:44:32.595Z,16.27
2022-10-26T09:47:06.712Z,16.13
2022-10-26T09:49:41.388Z,16.28
2022-10-26T09:54:42.546Z,16.44
2022-10-26T09:57:16.266Z,16.46
2022-10-26T09:59:44.596Z,16.98
2022-10-26T10:02:34.731Z,16.65
2022-10-26T10:05:03.230Z,17.24
2022-10-26T10:07:31.303Z,17.60
2022-10-26T10:10:15.853Z,17.46
2022-10-26T10:12:47.466Z,17.22
2022-10-26T10:15:20.872Z,16.89
2022-10-26T10:17:53.004Z,16.97
2022-10-26T10:20:23.785Z,17.47
2022-10-26T10:22:59.588Z,17.93
2022-10-26T10:25:36.715Z,18.00
2022-10-26T10:30:57.381Z,17.69
2022-10-26T10:33:34.927Z,17.29
2022-10-26T10:36:04.852Z,17.62
2022-10-26T10:38:39.043Z,18.21
2022-10-26T10:41:15.616Z,18.38
2022-10-26T10:43:48.371Z,17.90
2022-10-26T10:46:21.384Z,17.21
2022-10-26T10:48:52.931Z,17.03
2022-10-26T10:51:23.417Z,16.85
2022-10-26T10:53:53.391Z,17.56
2022-10-26T10:56:41.610Z,17.85
2022-10-26T10:59:29.822Z,18.25
2022-10-26T11:02:19.393Z,17.66
2022-10-26T11:05:05.779Z,18.20
2022-10-26T11:07:47.115Z,17.67
2022-10-26T11:10:18.988Z,18.19
2022-10-26T11:12:52.984Z,18.19
2022-10-26T11:15:27.013Z,18.78
2022-10-26T11:18:05.122Z,18.68
2022-10-26T11:20:36.628Z,18.36
2022-10-26T11:23:10.622Z,18.22
2022-10-26T11:25:46.136Z,18.70
2022-10-26T11:28:17.799Z,18.43
2022-10-26T11:30:51.193Z,18.45
2022-10-26T11:33:24.610Z,18.62
2022-10-26T11:35:58.930Z,17.97
2022-10-26T11:38:46.250Z,18.97
2022-10-26T11:41:31.062Z,18.73
2022-10-26T11:44:06.863Z,18.57
2022-10-26T11:46:42.134Z,19.96
2022-10-26T11:49:18.634Z,19.37
2022-10-26T11:51:53.361Z,19.74
2022-10-26T11:54:25.261Z,20.52
2022-10-26T11:56:57.070Z,20.56
2022-10-26T11:59:30.812Z,21.07
2022-10-26T12:02:07.464Z,21.37
2022-10-26T12:04:38.952Z,22.32
2022-10-26T12:07:14.483Z,22.60
2022-10-26T12:09:45.181Z,22.81
2022-10-26T12:12:22.923Z,22.95
2022-10-26T12:14:57.539Z,23.93
2022-10-26T12:17:36.006Z,23.66
2022-10-26T12:20:15.070Z,24.46
2022-10-26T12:22:43.755Z,24.46
2022-10-26T12:25:21.786Z,22.41
2022-10-26T12:27:55.477Z,22.54
2022-10-26T12:30:30.357Z,22.32
2022-10-26T12:33:01.554Z,22.75
2022-10-26T12:35:44.950Z,22.34
2022-10-26T12:38:57.902Z,22.46
2022-10-26T12:41:27.537Z,22.98
2022-10-26T12:44:26.065Z,22.37
2022-10-26T12:46:54.030Z,20.97
2022-10-26T12:49:56.388Z,21.23
2022-10-26T12:52:44.749Z,21.32
2022-10-26T12:55:42.571Z,21.88
2022-10-26T12:58:26.460Z,21.78
2022-10-26T13:01:15.862Z,21.00
2022-10-26T13:03:56.830Z,20.43
2022-10-26T13:06:46.858Z,20.57
2022-10-26T13:09:21.233Z,20.40
2022-10-26T13:11:51.087Z,19.42
2022-10-26T13:14:24.965Z,19.19
2022-10-26T13:16:53.805Z,19.32
2022-10-26T13:19:27.682Z,19.07
2022-10-26T13:22:00.055Z,19.51
2022-10-26T13:24:32.377Z,20.06
2022-10-26T13:27:40.805Z,20.05
2022-10-26T13:30:22.725Z,20.30
2022-10-26T13:32:54.210Z,20.69
2022-10-26T13:35:24.927Z,21.18
2022-10-26T13:37:55.294Z,21.76
2022-10-26T13:40:27.320Z,21.78
2022-10-26T13:42:58.563Z,21.93
2022-10-26T13:45:29.353Z,22.38
2022-10-26T13:48:02.542Z,22.09
2022-10-26T13:50:37.484Z,22.10
2022-10-26T13:53:11.299Z,22.00
2022-10-26T13:55:49.992Z,22.18
2022-10-26T13:58:40.198Z,21.92
2022-10-26T14:01:18.721Z,21.91
2022-10-26T14:03:48.394Z,22.12
2022-10-26T14:06:21.467Z,22.45
2022-10-26T14:08:51.743Z,21.62
2022-10-26T14:11:23.526Z,22.55
2022-10-26T14:13:52.891Z,22.53
2022-10-26T14:16:22.641Z,22.02
2022-10-26T14:18:50.889Z,21.23
2022-10-26T14:21:21.626Z,21.35
2022-10-26T14:23:52.392Z,21.53
2022-10-26T14:26:24.650Z,21.55
2022-10-26T14:28:54.654Z,22.03
2022-10-26T14:31:25.404Z,22.51
2022-10-26T14:33:54.758Z,22.70
2022-10-26T14:36:27.032Z,22.71
2022-10-26T14:39:00.121Z,22.67
2022-10-26T14:41:30.610Z,21.23
2022-10-26T14:44:00.807Z,21.33
2022-10-26T14:46:33.514Z,21.05
2022-10-26T14:49:03.209Z,21.56
2022-10-26T14:51:32.292Z,21.91
2022-10-26T14:54:01.842Z,21.72
2022-10-26T14:56:39.685Z,21.71
2022-10-26T14:59:13.344Z,21.82
2022-10-26T15:01:53.664Z,21.85
2022-10-26T15:04:33.914Z,21.55
2022-10-26T15:07:17.955Z,21.35
2022-10-26T15:09:47.270Z,20.81
2022-10-26T15:12:28.682Z,20.91
2022-10-26T15:14:57.548Z,20.86
2022-10-26T15:17:32.063Z,20.20
2022-10-26T15:20:05.432Z,20.21
2022-10-26T15:22:34.627Z,20.45
2022-10-26T15:25:05.362Z,20.50
2022-10-26T15:27:34.894Z,20.59
2022-10-26T15:30:22.632Z,20.76
2022-10-26T15:32:51.362Z,20.81
2022-10-26T15:35:30.162Z,20.82
2022-10-26T15:38:00.763Z,20.81
2022-10-26T15:40:30.704Z,20.65
2022-10-26T15:43:02.160Z,20.37
2022-10-26T15:45:33.268Z,20.21
2022-10-26T15:48:19.367Z,20.00
2022-10-26T15:50:47.425Z,19.72
2022-10-26T15:53:20.612Z,19.75
2022-10-26T15:55:49.130Z,19.72
2022-10-26T15:58:18.906Z,19.67
2022-10-26T16:00:47.025Z,19.64
2022-10-26T16:03:18.056Z,19.51
2022-10-26T16:05:46.139Z,19.50
2022-10-26T16:08:18.055Z,19.55
2022-10-26T16:10:48.456Z,19.54
2022-10-26T16:13:18.623Z,19.54
2022-10-26T16:15:46.724Z,19.53
2022-10-26T16:18:14.945Z,19.46
2022-10-26T16:20:45.917Z,19.28
2022-10-26T16:23:13.965Z,19.27
2022-10-26T16:25:44.160Z,19.14
2022-10-26T16:28:13.618Z,18.97
2022-10-26T16:30:43.744Z,18.86
2022-10-26T16:33:11.762Z,18.77
2022-10-26T16:35:39.749Z,18.71
2022-10-26T16:38:07.917Z,18.87
2022-10-26T16:40:35.885Z,19.00
2022-10-26T16:43:03.896Z,18.66
2022-10-26T16:45:31.875Z,18.56
2022-10-26T16:48:05.772Z,18.40
2022-10-26T16:50:36.302Z,18.35
2022-10-26T16:53:04.664Z,18.35
2022-10-26T16:55:33.031Z,18.27
2022-10-26T16:58:02.233Z,18.22
2022-10-26T17:00:30.419Z,18.18
2022-10-26T17:03:00.132Z,18.22
2022-10-26T17:05:29.766Z,18.17
2022-10-26T17:07:57.697Z,18.09
2022-10-26T17:10:27.974Z,18.02
2022-10-26T17:12:57.301Z,17.97
2022-10-26T17:15:28.902Z,17.92
2022-10-26T17:17:57.319Z,17.81
2022-10-26T17:20:25.308Z,17.82
2022-10-26T17:22:54.623Z,17.81
2022-10-26T17:25:22.824Z,17.55
2022-10-26T17:27:50.812Z,17.49
2022-10-26T17:30:18.948Z,17.52
2022-10-26T17:32:47.010Z,17.56
2022-10-26T17:35:16.958Z,17.62
2022-10-26T17:37:45.020Z,17.48
2022-10-26T17:40:14.613Z,17.44
2022-10-26T17:42:42.625Z,17.35
2022-10-26T17:45:11.148Z,17.25
2022-10-26T17:47:39.264Z,17.26
2022-10-26T17:50:08.344Z,17.25
2022-10-26T17:52:36.467Z,17.08
2022-10-26T17:55:04.667Z,17.05
2022-10-26T17:57:34.679Z,16.95
2022-10-26T18:00:03.921Z,16.89
2022-10-26T18:02:40.480Z,16.84
2022-10-26T18:05:09.649Z,16.77
2022-10-26T18:07:37.678Z,16.69
2022-10-26T18:10:13.954Z,16.62
2022-10-26T18:12:55.632Z,16.61
2022-10-26T18:15:24.875Z,16.57
2022-10-26T18:17:56.847Z,16.51
2022-10-26T18:20:27.946Z,16.43
2022-10-26T18:22:56.707Z,16.40
2022-10-26T18:25:24.923Z,16.35
2022-10-26T18:27:53.724Z,16.09
2022-10-26T18:30:24.960Z,16.04
2022-10-26T18:32:53.930Z,15.95
2022-10-26T18:35:22.383Z,15.90
2022-10-26T18:37:51.550Z,15.99
2022-10-26T18:40:20.206Z,16.11
2022-10-26T18:42:49.314Z,16.27
2022-10-26T18:45:17.489Z,16.12
2022-10-26T18:47:46.802Z,16.23
2022-10-26T18:50:15.036Z,16.23
2022-10-26T18:52:43.061Z,16.25
2022-10-26T18:55:11.245Z,16.33
2022-10-26T18:57:39.310Z,16.31
2022-10-26T19:00:08.480Z,16.29
2022-10-26T19:02:36.599Z,16.29
2022-10-26T19:05:06.746Z,16.28
2022-10-26T19:07:34.764Z,16.27
2022-10-26T19:10:02.688Z,16.27
2022-10-26T19:12:30.706Z,16.29
2022-10-26T19:14:58.799Z,16.30
2022-10-26T19:17:27.254Z,16.30
2022-10-26T19:19:55.220Z,16.13
2022-10-26T19:22:24.615Z,16.12
2022-10-26T19:24:52.618Z,16.12
2022-10-26T19:27:20.577Z,16.02
2022-10-26T19:29:48.575Z,15.90
2022-10-26T19:32:16.607Z,15.78
2022-10-26T19:34:44.669Z,15.73
2022-10-26T19:37:13.493Z,15.73
2022-10-26T19:39:43.420Z,15.67
2022-10-26T19:42:11.386Z,15.75
2022-10-26T19:44:39.514Z,15.20
2022-10-26T19:47:07.785Z,14.67
2022-10-26T19:49:35.871Z,14.84
2022-10-26T19:52:03.859Z,14.66
2022-10-26T19:54:31.791Z,14.45
2022-10-26T19:57:01.165Z,14.18
2022-10-26T19:59:29.178Z,14.13
2022-10-26T20:01:58.198Z,14.24
2022-10-26T20:04:26.187Z,14.06
2022-10-26T20:06:54.236Z,14.41
2022-10-26T20:09:22.186Z,14.74
2022-10-26T20:11:50.564Z,14.92
2022-10-26T20:14:19.927Z,14.85
2022-10-26T20:16:48.014Z,14.37
2022-10-26T20:19:15.905Z,14.23
2022-10-26T20:21:43.879Z,14.49
2022-10-26T20:24:12.008Z,14.54
2022-10-26T20:26:40.170Z,14.49
2022-10-26T20:29:08.105Z,14.47
2022-10-26T20:31:37.473Z,14.05
2022-10-26T20:34:05.667Z,13.85
2022-10-26T20:36:33.654Z,14.11
2022-10-26T20:39:02.220Z,14.31
2022-10-26T20:41:30.637Z,13.95
2022-10-26T20:43:59.370Z,13.96
2022-10-26T20:46:28.811Z,13.82
2022-10-26T20:48:58.819Z,13.35
2022-10-26T20:51:40.013Z,13.64
2022-10-26T20:54:19.097Z,13.45
2022-10-26T20:56:49.516Z,13.31
2022-10-26T20:59:23.419Z,13.54
2022-10-26T21:01:51.572Z,13.57
2022-10-26T21:04:20.947Z,13.85
2022-10-26T21:06:48.977Z,13.64
2022-10-26T21:09:16.921Z,13.41
2022-10-26T21:11:45.526Z,13.74
2022-10-26T21:14:13.599Z,13.58
2022-10-26T21:16:41.537Z,13.60
2022-10-26T21:19:09.507Z,13.18
2022-10-26T21:21:38.901Z,13.37
2022-10-26T21:24:07.724Z,13.31
2022-10-26T21:26:35.653Z,13.41
2022-10-26T21:29:03.695Z,13.34
2022-10-26T21:31:31.627Z,13.42
2022-10-26T21:33:59.665Z,13.35
2022-10-26T21:36:27.743Z,13.08
2022-10-26T21:38:57.283Z,13.20
2022-10-26T21:44:08.405Z,13.16
2022-10-26T21:46:38.564Z,12.94
2022-10-26T21:49:06.574Z,12.73
2022-10-26T21:51:35.056Z,12.77
2022-10-26T21:54:04.714Z,12.60
2022-10-26T21:56:32.711Z,12.78
2022-10-26T21:59:01.616Z,12.75
2022-10-26T22:01:29.723Z,12.92
2022-10-26T22:03:57.833Z,12.88
2022-10-26T22:06:26.096Z,12.64
2022-10-26T22:08:54.442Z,12.33
2022-10-26T22:11:25.655Z,12.50
2022-10-26T22:13:54.245Z,12.40
2022-10-26T22:16:24.547Z,12.25
2022-10-26T22:18:54.439Z,12.26
2022-10-26T22:21:25.096Z,12.39
2022-10-26T22:23:53.883Z,12.41
2022-10-26T22:26:24.968Z,12.28
2022-10-26T22:28:54.776Z,12.03
2022-10-26T22:31:25.552Z,11.61
2022-10-26T22:33:54.025Z,11.36
2022-10-26T22:36:22.497Z,11.14
2022-10-26T22:38:50.884Z,11.57
2022-10-26T22:41:20.063Z,11.90
2022-10-26T22:43:50.766Z,12.04
2022-10-26T22:46:21.195Z,11.69
2022-10-26T22:48:49.345Z,11.99
2022-10-26T22:51:19.792Z,11.86
2022-10-26T22:53:51.899Z,11.74
2022-10-26T22:56:20.289Z,11.81
2022-10-26T22:58:50.310Z,12.09
2022-10-26T23:01:20.516Z,12.11
2022-10-26T23:03:48.579Z,11.87
2022-10-26T23:06:19.455Z,11.75
2022-10-26T23:08:47.423Z,11.58
2022-10-26T23:11:18.014Z,11.72
2022-10-26T23:13:46.025Z,11.83
2022-10-26T23:16:17.966Z,11.80
2022-10-26T23:18:46.113Z,11.77
2022-10-26T23:21:15.138Z,12.09
2022-10-26T23:23:43.357Z,11.87
2022-10-26T23:26:13.341Z,11.77
2022-10-26T23:28:42.935Z,11.96
2022-10-26T23:31:16.499Z,11.91
2022-10-26T23:33:44.922Z,11.73
2022-10-26T23:36:13.127Z,11.90
2022-10-26T23:38:41.331Z,11.90
2022-10-26T23:41:12.108Z,11.80
2022-10-26T23:43:41.671Z,11.84
2022-10-26T23:46:09.677Z,12.25
2022-10-26T23:48:39.051Z,12.15
2022-10-26T23:51:07.342Z,12.25
2022-10-26T23:53:35.598Z,12.14
2022-10-26T23:56:03.982Z,12.41
2022-10-26T23:58:32.110Z,12.09
